Sunday, November 18, 2018, 2:46 PM GMT
Back to Local

CWEP, East Point, P. E. I

Location: , , Canada Lat: 46.45
Local Time: 2:46 PM GMT (14:46 GMT) Lon: -61.967
Time Zone: GMT Elev: 36 ft

Show me the last for .
Show Coded

Time T Td Feel RH Dir Speed Gust Alt SLP Vis Weather Sky Remarks
2018-11-18 13:00 31 19 15 62 290° 26 33 - 30.16 0 Peak wind: 34 mph (30 kts) from 290° at 37 min
2018-11-18 12:00 31 22 15 68 280° 24 35 - 30.13 0 Peak wind: 34 mph (30 kts) from 290° at 22 min
2018-11-18 11:00 31 24 16 73 290° 26 33 - 30.09 0 Peak wind: 33 mph (29 kts) from 270° at 56 min
2018-11-18 10:00 33 25 19 71 280° 22 29 - 30.05 0 Peak wind: 29 mph (26 kts) from 280° at 46 min
2018-11-18 09:00 33 29 22 85 220° 10 18 - 30.03 0 None
2018-11-18 08:00 33 29 22 85 240° 12 17 - 30.01 0 Peak wind: 19 mph (17 kts) from 240° at 02 min
2018-11-18 07:00 31 28 21 86 240° 15 - - 30.00 0 Peak wind: 19 mph (17 kts) from 240° at 38 min
2018-11-18 06:00 33 28 22 82 240° 12 17 - 29.99 0 Peak wind: 21 mph (19 kts) from 250° at 14 min
2018-11-18 05:00 31 28 19 86 240° 14 20 - 29.97 0 Peak wind: 19 mph (17 kts) from 250° at 58 min
2018-11-18 04:00 32 29 24 90 230° 9 - - 29.96 0 None
2018-11-18 03:00 31 26 21 80 240° 14 - - 29.95 0 None
2018-11-18 02:00 32 27 23 81 220° 10 - - 29.94 0 Peak wind: 19 mph (17 kts) from 220° at 36 min
2018-11-18 00:00 31 28 23 88 220° 10 - - 29.91 0 None
2018-11-17 23:00 33 29 25 83 230° 10 - - 29.89 0 Peak wind: 20 mph (18 kts) from 220° at 34 min
2018-11-17 22:00 34 30 23 84 230° 12 17 - 29.86 0 1-hr Precip Total: 0.01"
2018-11-17 21:00 34 30 28 84 250° 8 - - 29.83 0 None
2018-11-17 20:00 35 31 27 84 230° 10 - - 29.81 0 Peak wind: 23 mph (20 kts) from 240° at 12 min
2018-11-17 19:00 35 31 24 85 250° 13 20 - 29.78 0 Peak wind: 31 mph (27 kts) from 270° at 06 min
1-hr Precip Total: 0.01"
2018-11-17 18:00 35 30 22 81 270° 21 31 - 29.76 0 Peak wind: 31 mph (27 kts) from 280° at 57 min
2018-11-17 17:00 36 31 24 82 270° 20 26 - 29.72 0 Peak wind: 31 mph (27 kts) from 280° at 10 min
2018-11-17 16:00 35 28 21 75 280° 24 31 - 29.69 0 Peak wind: 33 mph (29 kts) from 290° at 20 min
2018-11-17 15:00 35 30 21 81 280° 28 37 - 29.68 0 Peak wind: 36 mph (32 kts) from 280° at 57 min

Support USWX by starting your Amazon purchase here.